sensor_id;sensor_type;location;lat;lon;timestamp;P1;durP1;ratioP1;P2;durP2;ratioP2
72791;SDS011;60907;53.268;8.764;2024-03-02T00:00:18;14.55;;;7.50;;
72791;SDS011;60907;53.268;8.764;2024-03-02T00:02:46;15.40;;;7.75;;
72791;SDS011;60907;53.268;8.764;2024-03-02T00:05:12;13.25;;;6.28;;
72791;SDS011;60907;53.268;8.764;2024-03-02T00:07:41;14.73;;;7.13;;
72791;SDS011;60907;53.268;8.764;2024-03-02T00:10:10;14.20;;;6.93;;
72791;SDS011;60907;53.268;8.764;2024-03-02T00:12:36;14.73;;;7.30;;
72791;SDS011;60907;53.268;8.764;2024-03-02T00:15:04;13.77;;;6.25;;
72791;SDS011;60907;53.268;8.764;2024-03-02T00:17:30;14.48;;;7.30;;
72791;SDS011;60907;53.268;8.764;2024-03-02T00:19:55;15.55;;;7.72;;
72791;SDS011;60907;53.268;8.764;2024-03-02T00:22:21;16.40;;;7.17;;
72791;SDS011;60907;53.268;8.764;2024-03-02T00:24:46;16.60;;;8.30;;
72791;SDS011;60907;53.268;8.764;2024-03-02T00:27:12;13.93;;;7.30;;
72791;SDS011;60907;53.268;8.764;2024-03-02T00:32:04;13.73;;;6.57;;
72791;SDS011;60907;53.268;8.764;2024-03-02T00:34:34;14.38;;;7.72;;
72791;SDS011;60907;53.268;8.764;2024-03-02T00:36:59;15.20;;;8.03;;
72791;SDS011;60907;53.268;8.764;2024-03-02T00:39:25;17.10;;;7.72;;
72791;SDS011;60907;53.268;8.764;2024-03-02T00:41:50;17.30;;;7.43;;
72791;SDS011;60907;53.268;8.764;2024-03-02T00:44:15;16.27;;;8.10;;
72791;SDS011;60907;53.268;8.764;2024-03-02T00:46:41;10.23;;;5.50;;
72791;SDS011;60907;53.268;8.764;2024-03-02T00:49:11;19.73;;;8.25;;
72791;SDS011;60907;53.268;8.764;2024-03-02T00:51:37;17.50;;;7.63;;
72791;SDS011;60907;53.268;8.764;2024-03-02T00:54:05;14.93;;;7.72;;
72791;SDS011;60907;53.268;8.764;2024-03-02T00:56:31;18.23;;;7.75;;
72791;SDS011;60907;53.268;8.764;2024-03-02T00:58:56;16.50;;;7.18;;
72791;SDS011;60907;53.268;8.764;2024-03-02T01:01:22;17.15;;;7.25;;
72791;SDS011;60907;53.268;8.764;2024-03-02T01:03:48;20.15;;;8.10;;
72791;SDS011;60907;53.268;8.764;2024-03-02T01:06:17;15.05;;;7.25;;
72791;SDS011;60907;53.268;8.764;2024-03-02T01:08:42;15.30;;;6.88;;
72791;SDS011;60907;53.268;8.764;2024-03-02T01:11:08;16.33;;;7.22;;
72791;SDS011;60907;53.268;8.764;2024-03-02T01:13:33;17.02;;;7.70;;
72791;SDS011;60907;53.268;8.764;2024-03-02T01:15:59;14.25;;;7.20;;
72791;SDS011;60907;53.268;8.764;2024-03-02T01:18:24;13.55;;;7.53;;
72791;SDS011;60907;53.268;8.764;2024-03-02T01:20:50;15.00;;;7.15;;
72791;SDS011;60907;53.268;8.764;2024-03-02T01:23:17;14.05;;;7.25;;
72791;SDS011;60907;53.268;8.764;2024-03-02T01:25:44;17.52;;;7.70;;
72791;SDS011;60907;53.268;8.764;2024-03-02T01:28:10;17.75;;;7.80;;
72791;SDS011;60907;53.268;8.764;2024-03-02T01:30:35;16.00;;;7.13;;
72791;SDS011;60907;53.268;8.764;2024-03-02T01:33:01;14.38;;;7.07;;
72791;SDS011;60907;53.268;8.764;2024-03-02T01:35:27;15.85;;;7.30;;
72791;SDS011;60907;53.268;8.764;2024-03-02T01:37:52;17.48;;;7.15;;
72791;SDS011;60907;53.268;8.764;2024-03-02T01:40:18;15.32;;;6.82;;
72791;SDS011;60907;53.268;8.764;2024-03-02T01:42:43;15.20;;;7.03;;
72791;SDS011;60907;53.268;8.764;2024-03-02T01:45:08;15.43;;;6.97;;
72791;SDS011;60907;53.268;8.764;2024-03-02T01:47:34;13.83;;;8.07;;
72791;SDS011;60907;53.268;8.764;2024-03-02T01:49:59;13.48;;;7.18;;
72791;SDS011;60907;53.268;8.764;2024-03-02T01:52:25;16.67;;;7.57;;
72791;SDS011;60907;53.268;8.764;2024-03-02T01:54:51;13.53;;;6.97;;
72791;SDS011;60907;53.268;8.764;2024-03-02T01:57:16;14.40;;;6.07;;
72791;SDS011;60907;53.268;8.764;2024-03-02T01:59:41;16.58;;;7.15;;
72791;SDS011;60907;53.268;8.764;2024-03-02T02:02:07;12.80;;;6.53;;
72791;SDS011;60907;53.268;8.764;2024-03-02T02:04:32;15.35;;;6.70;;
72791;SDS011;60907;53.268;8.764;2024-03-02T02:06:58;13.33;;;6.83;;
72791;SDS011;60907;53.268;8.764;2024-03-02T02:09:23;14.35;;;7.43;;
72791;SDS011;60907;53.268;8.764;2024-03-02T02:11:50;14.05;;;6.70;;
72791;SDS011;60907;53.268;8.764;2024-03-02T02:14:15;13.82;;;6.82;;
72791;SDS011;60907;53.268;8.764;2024-03-02T02:16:41;15.93;;;6.97;;
72791;SDS011;60907;53.268;8.764;2024-03-02T02:19:06;14.97;;;7.07;;
72791;SDS011;60907;53.268;8.764;2024-03-02T02:21:31;14.73;;;6.73;;
72791;SDS011;60907;53.268;8.764;2024-03-02T02:23:57;13.40;;;6.60;;
72791;SDS011;60907;53.268;8.764;2024-03-02T02:26:22;18.23;;;6.90;;
72791;SDS011;60907;53.268;8.764;2024-03-02T02:28:47;15.38;;;6.70;;
72791;SDS011;60907;53.268;8.764;2024-03-02T02:31:13;16.93;;;7.30;;
72791;SDS011;60907;53.268;8.764;2024-03-02T02:33:41;16.05;;;7.07;;
72791;SDS011;60907;53.268;8.764;2024-03-02T02:36:06;14.82;;;7.35;;
72791;SDS011;60907;53.268;8.764;2024-03-02T02:38:32;15.85;;;7.20;;
72791;SDS011;60907;53.268;8.764;2024-03-02T02:40:58;14.52;;;6.97;;
72791;SDS011;60907;53.268;8.764;2024-03-02T02:43:24;14.67;;;7.27;;
72791;SDS011;60907;53.268;8.764;2024-03-02T02:45:49;18.23;;;7.93;;
72791;SDS011;60907;53.268;8.764;2024-03-02T02:48:14;14.83;;;6.67;;
72791;SDS011;60907;53.268;8.764;2024-03-02T02:50:41;19.43;;;7.30;;
72791;SDS011;60907;53.268;8.764;2024-03-02T02:53:06;16.00;;;8.05;;
72791;SDS011;60907;53.268;8.764;2024-03-02T02:55:34;16.30;;;7.05;;
72791;SDS011;60907;53.268;8.764;2024-03-02T02:58:00;17.63;;;7.60;;
72791;SDS011;60907;53.268;8.764;2024-03-02T03:00:25;15.67;;;6.67;;
72791;SDS011;60907;53.268;8.764;2024-03-02T03:02:50;13.80;;;7.57;;
72791;SDS011;60907;53.268;8.764;2024-03-02T03:05:16;13.38;;;7.47;;
72791;SDS011;60907;53.268;8.764;2024-03-02T03:07:42;15.10;;;7.47;;
72791;SDS011;60907;53.268;8.764;2024-03-02T03:10:09;14.50;;;7.43;;
72791;SDS011;60907;53.268;8.764;2024-03-02T03:12:34;12.60;;;7.13;;
72791;SDS011;60907;53.268;8.764;2024-03-02T03:15:00;17.40;;;7.72;;
72791;SDS011;60907;53.268;8.764;2024-03-02T03:17:25;14.07;;;6.72;;
72791;SDS011;60907;53.268;8.764;2024-03-02T03:19:51;16.38;;;7.85;;
72791;SDS011;60907;53.268;8.764;2024-03-02T03:22:16;14.53;;;7.50;;
72791;SDS011;60907;53.268;8.764;2024-03-02T03:24:41;19.80;;;8.00;;
72791;SDS011;60907;53.268;8.764;2024-03-02T03:27:07;15.10;;;8.43;;
72791;SDS011;60907;53.268;8.764;2024-03-02T03:29:32;16.73;;;7.77;;
72791;SDS011;60907;53.268;8.764;2024-03-02T03:31:57;16.03;;;7.53;;
72791;SDS011;60907;53.268;8.764;2024-03-02T03:34:23;14.43;;;7.83;;
72791;SDS011;60907;53.268;8.764;2024-03-02T03:36:48;17.23;;;7.87;;
72791;SDS011;60907;53.268;8.764;2024-03-02T03:39:13;18.83;;;8.00;;
72791;SDS011;60907;53.268;8.764;2024-03-02T03:41:40;16.53;;;7.57;;
72791;SDS011;60907;53.268;8.764;2024-03-02T03:44:05;15.27;;;8.48;;
72791;SDS011;60907;53.268;8.764;2024-03-02T03:46:30;17.97;;;8.13;;
72791;SDS011;60907;53.268;8.764;2024-03-02T03:48:56;17.20;;;7.93;;
72791;SDS011;60907;53.268;8.764;2024-03-02T03:51:21;17.73;;;8.33;;
72791;SDS011;60907;53.268;8.764;2024-03-02T03:53:48;17.60;;;8.55;;
72791;SDS011;60907;53.268;8.764;2024-03-02T03:56:13;16.10;;;7.22;;
72791;SDS011;60907;53.268;8.764;2024-03-02T03:58:38;16.03;;;8.00;;
72791;SDS011;60907;53.268;8.764;2024-03-02T04:01:03;17.37;;;8.20;;
72791;SDS011;60907;53.268;8.764;2024-03-02T04:03:29;13.37;;;6.47;;
72791;SDS011;60907;53.268;8.764;2024-03-02T04:05:55;15.10;;;7.28;;
72791;SDS011;60907;53.268;8.764;2024-03-02T04:08:20;18.30;;;7.23;;
72791;SDS011;60907;53.268;8.764;2024-03-02T04:10:46;16.93;;;8.43;;
72791;SDS011;60907;53.268;8.764;2024-03-02T04:13:11;16.23;;;7.55;;
72791;SDS011;60907;53.268;8.764;2024-03-02T04:15:37;16.43;;;7.67;;
72791;SDS011;60907;53.268;8.764;2024-03-02T04:18:02;12.87;;;6.13;;
72791;SDS011;60907;53.268;8.764;2024-03-02T04:20:27;18.17;;;7.90;;
72791;SDS011;60907;53.268;8.764;2024-03-02T04:22:52;18.23;;;7.57;;
72791;SDS011;60907;53.268;8.764;2024-03-02T04:25:18;13.37;;;7.30;;
72791;SDS011;60907;53.268;8.764;2024-03-02T04:27:44;14.90;;;6.80;;
72791;SDS011;60907;53.268;8.764;2024-03-02T04:30:10;16.17;;;7.67;;
72791;SDS011;60907;53.268;8.764;2024-03-02T04:32:35;16.35;;;7.75;;
72791;SDS011;60907;53.268;8.764;2024-03-02T04:35:01;14.90;;;6.80;;
72791;SDS011;60907;53.268;8.764;2024-03-02T04:37:26;17.40;;;6.93;;
72791;SDS011;60907;53.268;8.764;2024-03-02T04:39:52;16.97;;;7.70;;
72791;SDS011;60907;53.268;8.764;2024-03-02T04:42:17;17.77;;;7.73;;
72791;SDS011;60907;53.268;8.764;2024-03-02T04:44:42;16.10;;;7.87;;
72791;SDS011;60907;53.268;8.764;2024-03-02T04:47:07;18.27;;;7.90;;
72791;SDS011;60907;53.268;8.764;2024-03-02T04:49:33;18.93;;;7.63;;
72791;SDS011;60907;53.268;8.764;2024-03-02T04:51:58;15.73;;;7.17;;
72791;SDS011;60907;53.268;8.764;2024-03-02T04:54:23;14.37;;;7.40;;
72791;SDS011;60907;53.268;8.764;2024-03-02T04:56:48;14.07;;;6.60;;
72791;SDS011;60907;53.268;8.764;2024-03-02T04:59:17;17.15;;;6.60;;
72791;SDS011;60907;53.268;8.764;2024-03-02T05:01:43;14.98;;;7.45;;
72791;SDS011;60907;53.268;8.764;2024-03-02T05:04:08;14.38;;;7.43;;
72791;SDS011;60907;53.268;8.764;2024-03-02T05:06:36;15.18;;;6.88;;
72791;SDS011;60907;53.268;8.764;2024-03-02T05:09:02;14.88;;;6.70;;
72791;SDS011;60907;53.268;8.764;2024-03-02T05:11:27;17.47;;;7.30;;
72791;SDS011;60907;53.268;8.764;2024-03-02T05:14:07;15.63;;;6.72;;
72791;SDS011;60907;53.268;8.764;2024-03-02T05:16:32;13.05;;;5.55;;
72791;SDS011;60907;53.268;8.764;2024-03-02T05:18:58;14.38;;;7.03;;
72791;SDS011;60907;53.268;8.764;2024-03-02T05:21:23;13.53;;;6.13;;
72791;SDS011;60907;53.268;8.764;2024-03-02T05:23:48;15.47;;;6.47;;
72791;SDS011;60907;53.268;8.764;2024-03-02T05:26:14;13.00;;;7.10;;
72791;SDS011;60907;53.268;8.764;2024-03-02T05:28:39;14.00;;;7.23;;
72791;SDS011;60907;53.268;8.764;2024-03-02T05:31:04;14.23;;;6.37;;
72791;SDS011;60907;53.268;8.764;2024-03-02T05:33:30;12.95;;;6.53;;
72791;SDS011;60907;53.268;8.764;2024-03-02T05:35:56;13.52;;;6.53;;
72791;SDS011;60907;53.268;8.764;2024-03-02T05:38:22;12.70;;;6.63;;
72791;SDS011;60907;53.268;8.764;2024-03-02T05:40:47;12.57;;;6.20;;
72791;SDS011;60907;53.268;8.764;2024-03-02T05:43:12;11.43;;;6.60;;
72791;SDS011;60907;53.268;8.764;2024-03-02T05:45:38;15.30;;;5.87;;
72791;SDS011;60907;53.268;8.764;2024-03-02T05:48:04;11.98;;;5.95;;
72791;SDS011;60907;53.268;8.764;2024-03-02T05:50:29;13.35;;;6.95;;
72791;SDS011;60907;53.268;8.764;2024-03-02T05:52:54;14.75;;;6.93;;
72791;SDS011;60907;53.268;8.764;2024-03-02T05:55:21;14.32;;;6.70;;
72791;SDS011;60907;53.268;8.764;2024-03-02T05:57:47;10.95;;;5.80;;
72791;SDS011;60907;53.268;8.764;2024-03-02T06:00:24;11.32;;;6.10;;
72791;SDS011;60907;53.268;8.764;2024-03-02T06:02:49;14.43;;;6.57;;
72791;SDS011;60907;53.268;8.764;2024-03-02T06:05:15;12.43;;;6.10;;
72791;SDS011;60907;53.268;8.764;2024-03-02T06:07:41;12.63;;;6.22;;
72791;SDS011;60907;53.268;8.764;2024-03-02T06:10:07;13.07;;;6.10;;
72791;SDS011;60907;53.268;8.764;2024-03-02T06:12:34;12.68;;;6.85;;
72791;SDS011;60907;53.268;8.764;2024-03-02T06:14:59;13.15;;;6.32;;
72791;SDS011;60907;53.268;8.764;2024-03-02T06:17:24;14.20;;;5.80;;
72791;SDS011;60907;53.268;8.764;2024-03-02T06:19:49;11.67;;;6.47;;
72791;SDS011;60907;53.268;8.764;2024-03-02T06:22:15;13.27;;;6.37;;
72791;SDS011;60907;53.268;8.764;2024-03-02T06:24:40;12.83;;;6.27;;
72791;SDS011;60907;53.268;8.764;2024-03-02T06:27:05;12.23;;;6.40;;
72791;SDS011;60907;53.268;8.764;2024-03-02T06:29:33;11.40;;;6.40;;
72791;SDS011;60907;53.268;8.764;2024-03-02T06:31:59;15.10;;;7.88;;
72791;SDS011;60907;53.268;8.764;2024-03-02T06:34:24;12.53;;;6.40;;
72791;SDS011;60907;53.268;8.764;2024-03-02T06:36:49;11.02;;;6.13;;
72791;SDS011;60907;53.268;8.764;2024-03-02T06:39:15;14.17;;;6.43;;
72791;SDS011;60907;53.268;8.764;2024-03-02T06:41:40;12.00;;;6.37;;
72791;SDS011;60907;53.268;8.764;2024-03-02T06:44:05;16.50;;;7.70;;
72791;SDS011;60907;53.268;8.764;2024-03-02T06:46:31;13.95;;;6.60;;
72791;SDS011;60907;53.268;8.764;2024-03-02T06:48:56;14.03;;;5.97;;
72791;SDS011;60907;53.268;8.764;2024-03-02T06:51:22;13.07;;;6.93;;
72791;SDS011;60907;53.268;8.764;2024-03-02T06:53:47;14.20;;;6.70;;
72791;SDS011;60907;53.268;8.764;2024-03-02T06:56:12;13.47;;;6.00;;
72791;SDS011;60907;53.268;8.764;2024-03-02T06:58:38;12.60;;;6.20;;
72791;SDS011;60907;53.268;8.764;2024-03-02T07:01:03;15.53;;;7.23;;
72791;SDS011;60907;53.268;8.764;2024-03-02T07:03:28;14.07;;;6.90;;
72791;SDS011;60907;53.268;8.764;2024-03-02T07:05:53;12.60;;;6.10;;
72791;SDS011;60907;53.268;8.764;2024-03-02T07:08:19;17.17;;;6.67;;
72791;SDS011;60907;53.268;8.764;2024-03-02T07:10:44;14.80;;;7.40;;
72791;SDS011;60907;53.268;8.764;2024-03-02T07:13:09;12.57;;;5.63;;
72791;SDS011;60907;53.268;8.764;2024-03-02T07:15:34;11.57;;;5.60;;
72791;SDS011;60907;53.268;8.764;2024-03-02T07:18:22;17.33;;;7.30;;
72791;SDS011;60907;53.268;8.764;2024-03-02T07:20:48;15.07;;;6.83;;
72791;SDS011;60907;53.268;8.764;2024-03-02T07:23:14;14.40;;;6.53;;
72791;SDS011;60907;53.268;8.764;2024-03-02T07:25:39;15.07;;;6.67;;
72791;SDS011;60907;53.268;8.764;2024-03-02T07:28:04;11.13;;;6.30;;
72791;SDS011;60907;53.268;8.764;2024-03-02T07:30:32;16.25;;;7.00;;
72791;SDS011;60907;53.268;8.764;2024-03-02T07:32:57;13.03;;;6.73;;
72791;SDS011;60907;53.268;8.764;2024-03-02T07:35:23;14.73;;;6.70;;
72791;SDS011;60907;53.268;8.764;2024-03-02T07:37:52;14.25;;;7.25;;
72791;SDS011;60907;53.268;8.764;2024-03-02T07:40:17;16.30;;;7.75;;
72791;SDS011;60907;53.268;8.764;2024-03-02T07:42:43;15.40;;;7.37;;
72791;SDS011;60907;53.268;8.764;2024-03-02T07:45:08;11.33;;;6.03;;
72791;SDS011;60907;53.268;8.764;2024-03-02T07:47:34;14.17;;;7.37;;
72791;SDS011;60907;53.268;8.764;2024-03-02T07:49:59;13.35;;;7.13;;
72791;SDS011;60907;53.268;8.764;2024-03-02T07:52:25;13.90;;;6.43;;
72791;SDS011;60907;53.268;8.764;2024-03-02T07:54:50;14.43;;;7.37;;
72791;SDS011;60907;53.268;8.764;2024-03-02T07:57:16;14.93;;;7.38;;
72791;SDS011;60907;53.268;8.764;2024-03-02T07:59:41;17.13;;;7.77;;
72791;SDS011;60907;53.268;8.764;2024-03-02T08:02:07;15.73;;;6.38;;
72791;SDS011;60907;53.268;8.764;2024-03-02T08:04:33;16.53;;;8.20;;
72791;SDS011;60907;53.268;8.764;2024-03-02T08:06:58;17.17;;;7.73;;
72791;SDS011;60907;53.268;8.764;2024-03-02T08:09:23;17.00;;;7.23;;
72791;SDS011;60907;53.268;8.764;2024-03-02T08:11:48;17.50;;;7.73;;
72791;SDS011;60907;53.268;8.764;2024-03-02T08:14:14;15.33;;;7.00;;
72791;SDS011;60907;53.268;8.764;2024-03-02T08:16:39;15.77;;;7.10;;
72791;SDS011;60907;53.268;8.764;2024-03-02T08:19:05;14.50;;;7.35;;
72791;SDS011;60907;53.268;8.764;2024-03-02T08:21:30;15.73;;;7.73;;
72791;SDS011;60907;53.268;8.764;2024-03-02T08:23:57;15.80;;;7.00;;
72791;SDS011;60907;53.268;8.764;2024-03-02T08:26:23;17.70;;;7.25;;
72791;SDS011;60907;53.268;8.764;2024-03-02T08:28:48;14.37;;;7.27;;
72791;SDS011;60907;53.268;8.764;2024-03-02T08:31:13;17.17;;;7.60;;
72791;SDS011;60907;53.268;8.764;2024-03-02T08:33:39;18.10;;;8.57;;
72791;SDS011;60907;53.268;8.764;2024-03-02T08:36:05;15.27;;;7.57;;
72791;SDS011;60907;53.268;8.764;2024-03-02T08:38:30;16.50;;;7.10;;
72791;SDS011;60907;53.268;8.764;2024-03-02T08:40:56;14.17;;;7.00;;
72791;SDS011;60907;53.268;8.764;2024-03-02T08:43:21;18.97;;;7.47;;
72791;SDS011;60907;53.268;8.764;2024-03-02T08:45:47;14.50;;;6.68;;
72791;SDS011;60907;53.268;8.764;2024-03-02T08:48:13;15.18;;;7.40;;
72791;SDS011;60907;53.268;8.764;2024-03-02T08:50:38;16.33;;;8.83;;
72791;SDS011;60907;53.268;8.764;2024-03-02T08:53:03;16.60;;;8.10;;
72791;SDS011;60907;53.268;8.764;2024-03-02T08:55:28;13.87;;;6.93;;
72791;SDS011;60907;53.268;8.764;2024-03-02T08:57:54;19.57;;;7.87;;
72791;SDS011;60907;53.268;8.764;2024-03-02T09:00:19;16.30;;;7.43;;
72791;SDS011;60907;53.268;8.764;2024-03-02T09:02:45;14.73;;;7.25;;
72791;SDS011;60907;53.268;8.764;2024-03-02T09:05:10;16.47;;;8.00;;
72791;SDS011;60907;53.268;8.764;2024-03-02T09:07:35;13.32;;;7.43;;
72791;SDS011;60907;53.268;8.764;2024-03-02T09:10:01;16.17;;;7.30;;
72791;SDS011;60907;53.268;8.764;2024-03-02T09:12:26;15.20;;;7.07;;
72791;SDS011;60907;53.268;8.764;2024-03-02T09:14:51;14.90;;;6.57;;
72791;SDS011;60907;53.268;8.764;2024-03-02T09:17:16;11.93;;;5.50;;
72791;SDS011;60907;53.268;8.764;2024-03-02T09:19:42;12.57;;;6.20;;
72791;SDS011;60907;53.268;8.764;2024-03-02T09:22:07;15.20;;;6.17;;
72791;SDS011;60907;53.268;8.764;2024-03-02T09:24:32;17.43;;;7.53;;
72791;SDS011;60907;53.268;8.764;2024-03-02T09:27:00;14.43;;;7.82;;
72791;SDS011;60907;53.268;8.764;2024-03-02T09:29:25;15.93;;;6.97;;
72791;SDS011;60907;53.268;8.764;2024-03-02T09:31:51;11.83;;;5.73;;
72791;SDS011;60907;53.268;8.764;2024-03-02T09:34:16;14.13;;;7.00;;
72791;SDS011;60907;53.268;8.764;2024-03-02T09:36:41;15.93;;;7.10;;
72791;SDS011;60907;53.268;8.764;2024-03-02T09:39:07;14.00;;;6.90;;
72791;SDS011;60907;53.268;8.764;2024-03-02T09:43:59;13.07;;;6.70;;
72791;SDS011;60907;53.268;8.764;2024-03-02T09:46:25;14.43;;;7.15;;
72791;SDS011;60907;53.268;8.764;2024-03-02T09:48:50;13.45;;;6.35;;
72791;SDS011;60907;53.268;8.764;2024-03-02T09:51:16;15.00;;;6.68;;
72791;SDS011;60907;53.268;8.764;2024-03-02T09:53:44;17.38;;;7.75;;
72791;SDS011;60907;53.268;8.764;2024-03-02T09:56:10;14.05;;;7.10;;
72791;SDS011;60907;53.268;8.764;2024-03-02T09:58:35;8.37;;;3.80;;
72791;SDS011;60907;53.268;8.764;2024-03-02T10:01:01;12.93;;;6.30;;
72791;SDS011;60907;53.268;8.764;2024-03-02T10:03:26;16.30;;;6.57;;
72791;SDS011;60907;53.268;8.764;2024-03-02T10:05:51;15.10;;;6.05;;
72791;SDS011;60907;53.268;8.764;2024-03-02T10:08:17;10.87;;;5.43;;
72791;SDS011;60907;53.268;8.764;2024-03-02T10:10:42;12.87;;;6.30;;
72791;SDS011;60907;53.268;8.764;2024-03-02T10:13:11;15.00;;;6.70;;
72791;SDS011;60907;53.268;8.764;2024-03-02T10:15:37;12.48;;;6.70;;
72791;SDS011;60907;53.268;8.764;2024-03-02T10:18:08;9.95;;;5.53;;
72791;SDS011;60907;53.268;8.764;2024-03-02T10:20:33;8.25;;;4.32;;
72791;SDS011;60907;53.268;8.764;2024-03-02T10:23:12;11.10;;;5.80;;
72791;SDS011;60907;53.268;8.764;2024-03-02T10:25:38;14.82;;;6.63;;
72791;SDS011;60907;53.268;8.764;2024-03-02T10:28:03;9.60;;;5.13;;
72791;SDS011;60907;53.268;8.764;2024-03-02T10:30:31;10.65;;;5.85;;
72791;SDS011;60907;53.268;8.764;2024-03-02T10:32:56;11.67;;;5.80;;
72791;SDS011;60907;53.268;8.764;2024-03-02T10:35:24;12.37;;;6.20;;
72791;SDS011;60907;53.268;8.764;2024-03-02T10:37:50;12.70;;;6.68;;
72791;SDS011;60907;53.268;8.764;2024-03-02T10:40:17;11.07;;;5.13;;
72791;SDS011;60907;53.268;8.764;2024-03-02T10:42:42;12.07;;;5.22;;
72791;SDS011;60907;53.268;8.764;2024-03-02T10:45:09;9.55;;;4.90;;
72791;SDS011;60907;53.268;8.764;2024-03-02T10:47:35;10.70;;;5.53;;
72791;SDS011;60907;53.268;8.764;2024-03-02T10:50:01;10.85;;;5.32;;
72791;SDS011;60907;53.268;8.764;2024-03-02T10:52:28;11.32;;;5.63;;
72791;SDS011;60907;53.268;8.764;2024-03-02T10:54:54;11.50;;;5.80;;
72791;SDS011;60907;53.268;8.764;2024-03-02T10:57:20;10.60;;;5.23;;
72791;SDS011;60907;53.268;8.764;2024-03-02T10:59:51;10.63;;;5.40;;
72791;SDS011;60907;53.268;8.764;2024-03-02T11:02:17;9.13;;;5.05;;
72791;SDS011;60907;53.268;8.764;2024-03-02T11:04:42;11.00;;;5.43;;
72791;SDS011;60907;53.268;8.764;2024-03-02T11:07:09;9.90;;;5.30;;
72791;SDS011;60907;53.268;8.764;2024-03-02T11:09:36;11.32;;;5.70;;
72791;SDS011;60907;53.268;8.764;2024-03-02T11:12:03;11.18;;;5.65;;
72791;SDS011;60907;53.268;8.764;2024-03-02T11:14:29;9.60;;;5.45;;
72791;SDS011;60907;53.268;8.764;2024-03-02T11:16:55;8.57;;;4.85;;
72791;SDS011;60907;53.268;8.764;2024-03-02T11:19:20;11.05;;;5.93;;
72791;SDS011;60907;53.268;8.764;2024-03-02T11:21:46;10.88;;;5.15;;
72791;SDS011;60907;53.268;8.764;2024-03-02T11:26:46;9.65;;;4.75;;
72791;SDS011;60907;53.268;8.764;2024-03-02T11:29:42;8.30;;;4.90;;
72791;SDS011;60907;53.268;8.764;2024-03-02T11:31:57;8.32;;;4.82;;
72791;SDS011;60907;53.268;8.764;2024-03-02T11:34:36;15.23;;;5.85;;
72791;SDS011;60907;53.268;8.764;2024-03-02T11:37:04;12.50;;;5.10;;
72791;SDS011;60907;53.268;8.764;2024-03-02T11:39:30;9.00;;;4.57;;
72791;SDS011;60907;53.268;8.764;2024-03-02T11:41:56;14.77;;;5.55;;
72791;SDS011;60907;53.268;8.764;2024-03-02T11:44:22;9.13;;;4.80;;
72791;SDS011;60907;53.268;8.764;2024-03-02T11:47:00;9.83;;;4.90;;
72791;SDS011;60907;53.268;8.764;2024-03-02T11:49:41;11.18;;;5.57;;
72791;SDS011;60907;53.268;8.764;2024-03-02T11:52:08;10.68;;;5.32;;
72791;SDS011;60907;53.268;8.764;2024-03-02T11:54:34;9.77;;;5.22;;
72791;SDS011;60907;53.268;8.764;2024-03-02T11:57:01;9.38;;;4.28;;
72791;SDS011;60907;53.268;8.764;2024-03-02T11:59:27;11.32;;;5.63;;
72791;SDS011;60907;53.268;8.764;2024-03-02T12:01:53;10.07;;;5.18;;
72791;SDS011;60907;53.268;8.764;2024-03-02T12:04:18;9.53;;;4.67;;
72791;SDS011;60907;53.268;8.764;2024-03-02T12:06:44;11.32;;;5.43;;
72791;SDS011;60907;53.268;8.764;2024-03-02T12:11:37;8.63;;;4.75;;
72791;SDS011;60907;53.268;8.764;2024-03-02T12:14:02;11.60;;;5.37;;
72791;SDS011;60907;53.268;8.764;2024-03-02T12:16:29;7.55;;;4.60;;
72791;SDS011;60907;53.268;8.764;2024-03-02T12:18:54;8.77;;;4.87;;
72791;SDS011;60907;53.268;8.764;2024-03-02T12:21:19;8.20;;;4.10;;
72791;SDS011;60907;53.268;8.764;2024-03-02T12:23:47;9.60;;;4.93;;
72791;SDS011;60907;53.268;8.764;2024-03-02T12:26:14;9.07;;;5.05;;
72791;SDS011;60907;53.268;8.764;2024-03-02T12:28:40;9.48;;;5.45;;
72791;SDS011;60907;53.268;8.764;2024-03-02T12:31:05;7.37;;;4.23;;
72791;SDS011;60907;53.268;8.764;2024-03-02T12:33:31;9.20;;;4.45;;
72791;SDS011;60907;53.268;8.764;2024-03-02T12:35:57;8.60;;;4.50;;
72791;SDS011;60907;53.268;8.764;2024-03-02T12:38:22;10.15;;;4.82;;
72791;SDS011;60907;53.268;8.764;2024-03-02T12:40:51;9.38;;;4.50;;
72791;SDS011;60907;53.268;8.764;2024-03-02T12:43:16;8.15;;;4.82;;
72791;SDS011;60907;53.268;8.764;2024-03-02T12:45:41;10.40;;;4.73;;
72791;SDS011;60907;53.268;8.764;2024-03-02T12:48:07;6.50;;;3.20;;
72791;SDS011;60907;53.268;8.764;2024-03-02T12:50:32;5.93;;;3.10;;
72791;SDS011;60907;53.268;8.764;2024-03-02T12:52:58;7.53;;;3.80;;
72791;SDS011;60907;53.268;8.764;2024-03-02T12:55:23;6.50;;;3.60;;
72791;SDS011;60907;53.268;8.764;2024-03-02T12:57:52;7.93;;;3.97;;
72791;SDS011;60907;53.268;8.764;2024-03-02T13:00:18;8.70;;;3.83;;
72791;SDS011;60907;53.268;8.764;2024-03-02T13:02:45;9.50;;;4.63;;
72791;SDS011;60907;53.268;8.764;2024-03-02T13:05:10;8.50;;;4.75;;
72791;SDS011;60907;53.268;8.764;2024-03-02T13:07:38;9.90;;;4.15;;
72791;SDS011;60907;53.268;8.764;2024-03-02T13:10:04;8.50;;;5.10;;
72791;SDS011;60907;53.268;8.764;2024-03-02T13:12:30;9.60;;;4.32;;
72791;SDS011;60907;53.268;8.764;2024-03-02T13:14:57;8.93;;;4.32;;
72791;SDS011;60907;53.268;8.764;2024-03-02T13:17:23;10.48;;;4.00;;
72791;SDS011;60907;53.268;8.764;2024-03-02T13:19:57;8.57;;;4.10;;
72791;SDS011;60907;53.268;8.764;2024-03-02T13:22:23;8.77;;;4.30;;
72791;SDS011;60907;53.268;8.764;2024-03-02T13:24:52;7.97;;;3.88;;
72791;SDS011;60907;53.268;8.764;2024-03-02T13:27:19;7.72;;;4.15;;
72791;SDS011;60907;53.268;8.764;2024-03-02T13:29:45;9.53;;;3.73;;
72791;SDS011;60907;53.268;8.764;2024-03-02T13:32:10;7.38;;;3.72;;
72791;SDS011;60907;53.268;8.764;2024-03-02T13:34:35;8.07;;;3.70;;
72791;SDS011;60907;53.268;8.764;2024-03-02T13:37:02;7.78;;;3.17;;
72791;SDS011;60907;53.268;8.764;2024-03-02T13:39:27;6.53;;;3.28;;
72791;SDS011;60907;53.268;8.764;2024-03-02T13:41:55;7.18;;;3.60;;
72791;SDS011;60907;53.268;8.764;2024-03-02T13:44:28;5.90;;;3.58;;
72791;SDS011;60907;53.268;8.764;2024-03-02T13:46:53;5.45;;;3.25;;
72791;SDS011;60907;53.268;8.764;2024-03-02T13:49:18;9.87;;;3.40;;
72791;SDS011;60907;53.268;8.764;2024-03-02T13:51:44;5.83;;;2.83;;
72791;SDS011;60907;53.268;8.764;2024-03-02T13:54:10;6.97;;;3.25;;
72791;SDS011;60907;53.268;8.764;2024-03-02T13:56:35;5.27;;;2.90;;
72791;SDS011;60907;53.268;8.764;2024-03-02T13:59:00;5.33;;;2.63;;
72791;SDS011;60907;53.268;8.764;2024-03-02T14:01:26;7.10;;;3.15;;
72791;SDS011;60907;53.268;8.764;2024-03-02T14:03:51;5.60;;;2.90;;
72791;SDS011;60907;53.268;8.764;2024-03-02T14:08:44;7.07;;;2.72;;
72791;SDS011;60907;53.268;8.764;2024-03-02T14:11:10;5.50;;;2.53;;
72791;SDS011;60907;53.268;8.764;2024-03-02T14:13:39;4.43;;;2.58;;
72791;SDS011;60907;53.268;8.764;2024-03-02T14:16:05;4.00;;;2.50;;
72791;SDS011;60907;53.268;8.764;2024-03-02T14:18:30;4.68;;;2.42;;
72791;SDS011;60907;53.268;8.764;2024-03-02T14:20:55;4.60;;;2.30;;
72791;SDS011;60907;53.268;8.764;2024-03-02T14:23:21;5.60;;;2.25;;
72791;SDS011;60907;53.268;8.764;2024-03-02T14:25:46;4.83;;;2.33;;
72791;SDS011;60907;53.268;8.764;2024-03-02T14:28:12;5.05;;;2.58;;
72791;SDS011;60907;53.268;8.764;2024-03-02T14:30:38;5.60;;;2.63;;
72791;SDS011;60907;53.268;8.764;2024-03-02T14:33:03;4.83;;;2.10;;
72791;SDS011;60907;53.268;8.764;2024-03-02T14:35:28;4.10;;;2.40;;
72791;SDS011;60907;53.268;8.764;2024-03-02T14:37:53;4.57;;;2.37;;
72791;SDS011;60907;53.268;8.764;2024-03-02T14:40:19;6.65;;;3.15;;
72791;SDS011;60907;53.268;8.764;2024-03-02T14:42:46;5.47;;;2.70;;